Time;durP1;ratioP1;P1;durP2;ratioP2;P2;SDS_P1;SDS_P2;PMS_P1;PMS_P2;Temp;Humidity;BMP_temperature;BMP_pressure;BME280_temperature;BME280_humidity;BME280_pressure;Samples;Min_cycle;Max_cycle;Signal;HPM_P1;HPM_P2
2023/11/08 00:00:07;;;;;;;8.70;3.60;;;;;;;9.86;82.22;100279.16;110870;1214;138508;-66
2023/11/08 00:02:32;;;;;;;8.00;3.40;;;;;;;9.83;82.09;100275.05;111122;1209;95202;-66
2023/11/08 00:04:57;;;;;;;6.60;3.50;;;;;;;9.78;82.01;100273.87;110980;1212;138566;-67
2023/11/08 00:07:23;;;;;;;4.90;3.10;;;;;;;9.75;82.11;100275.77;110942;1212;96340;-67
2023/11/08 00:09:50;;;;;;;7.40;4.30;;;;;;;9.73;82.28;100275.31;110878;1212;138766;-67
2023/11/08 00:12:17;;;;;;;7.30;3.10;;;;;;;9.73;82.15;100275.32;111009;1216;100191;-67
2023/11/08 00:14:43;;;;;;;8.70;3.30;;;;;;;9.68;82.15;100278.58;110898;1209;96263;-66
2023/11/08 00:17:08;;;;;;;7.60;3.70;;;;;;;9.64;82.22;100279.48;110796;1212;139694;-66
2023/11/08 00:19:33;;;;;;;6.90;3.50;;;;;;;9.59;82.07;100277.23;111009;1209;96562;-66
2023/11/08 00:21:58;;;;;;;6.60;3.20;;;;;;;9.52;82.02;100273.81;110844;1212;138413;-66
2023/11/08 00:24:27;;;;;;;8.30;3.60;;;;;;;9.50;82.26;100277.46;110997;1209;96340;-68
2023/11/08 00:26:53;;;;;;;5.20;2.80;;;;;;;9.50;82.32;100276.02;110989;1208;96285;-65
2023/11/08 00:29:19;;;;;;;5.40;3.00;;;;;;;9.51;82.41;100276.34;110997;1212;137959;-66
2023/11/08 00:31:44;;;;;;;4.00;2.30;;;;;;;9.51;82.35;100277.60;110918;1209;96264;-66
2023/11/08 00:34:13;;;;;;;6.60;3.20;;;;;;;9.47;82.28;100275.80;110835;1212;138991;-66
2023/11/08 00:36:39;;;;;;;6.50;2.80;;;;;;;9.47;82.41;100279.39;110970;1211;97520;-66
2023/11/08 00:39:04;;;;;;;7.50;3.30;;;;;;;9.42;82.26;100284.04;110981;1212;96299;-66
2023/11/08 00:41:32;;;;;;;6.70;3.00;;;;;;;9.41;82.50;100284.08;110913;1212;138604;-66
2023/11/08 00:43:57;;;;;;;5.20;2.60;;;;;;;9.43;82.58;100285.92;110935;1212;96378;-66
2023/11/08 00:46:23;;;;;;;6.10;2.80;;;;;;;9.45;82.63;100279.80;110900;1209;139093;-66
2023/11/08 00:48:48;;;;;;;6.80;3.30;;;;;;;9.46;82.66;100281.17;110907;1212;96439;-65
2023/11/08 00:51:14;;;;;;;6.30;2.80;;;;;;;9.47;82.66;100283.48;110953;1212;96558;-66
2023/11/08 00:53:39;;;;;;;7.40;2.80;;;;;;;9.48;82.69;100278.98;110860;1209;138259;-66
2023/11/08 00:56:05;;;;;;;7.50;3.10;;;;;;;9.47;82.74;100275.98;111012;1212;96248;-66
2023/11/08 00:58:31;;;;;;;7.30;2.90;;;;;;;9.49;82.79;100277.33;110940;1212;138718;-67
2023/11/08 01:00:57;;;;;;;7.40;2.60;;;;;;;9.48;82.70;100276.49;110989;1212;96414;-66
2023/11/08 01:03:22;;;;;;;6.30;2.90;;;;;;;9.46;82.72;100275.47;111091;1209;96252;-67
2023/11/08 01:05:47;;;;;;;5.90;3.10;;;;;;;9.45;82.73;100277.84;110798;1212;138253;-66
2023/11/08 01:08:13;;;;;;;5.70;3.10;;;;;;;9.42;82.67;100277.27;111094;1212;96360;-66
2023/11/08 01:10:40;;;;;;;7.80;2.90;;;;;;;9.34;82.59;100277.61;110874;1212;138071;-66
2023/11/08 01:13:06;;;;;;;5.20;2.50;;;;;;;9.33;82.76;100281.60;111067;1209;96227;-66
2023/11/08 01:15:32;;;;;;;5.70;3.10;;;;;;;9.34;82.81;100282.08;110984;1221;96344;-66
2023/11/08 01:17:57;;;;;;;7.00;3.30;;;;;;;9.31;82.87;100280.43;110911;1208;137924;-66
2023/11/08 01:20:22;;;;;;;4.00;2.60;;;;;;;9.31;82.88;100280.05;111002;1218;96429;-66
2023/11/08 01:22:47;;;;;;;5.00;2.50;;;;;;;9.31;82.90;100280.40;110820;1212;138233;-66
2023/11/08 01:25:13;;;;;;;5.80;3.10;;;;;;;9.31;82.96;100279.55;110998;1212;96358;-66
2023/11/08 01:27:38;;;;;;;4.00;2.70;;;;;;;9.32;82.93;100279.86;110994;1212;96269;-66
2023/11/08 01:30:04;;;;;;;4.20;2.60;;;;;;;9.29;82.90;100281.57;110945;1209;138384;-66
2023/11/08 01:32:31;;;;;;;8.00;2.70;;;;;;;9.29;83.02;100281.38;111003;1212;96380;-67
2023/11/08 01:34:57;;;;;;;5.60;2.50;;;;;;;9.30;82.95;100275.09;110896;1212;138625;-66
2023/11/08 01:37:23;;;;;;;4.10;2.60;;;;;;;9.30;83.01;100272.06;110902;1209;96410;-67
2023/11/08 01:39:48;;;;;;;5.20;2.80;;;;;;;9.29;82.97;100276.77;111018;1222;95153;-66
2023/11/08 01:42:13;;;;;;;3.30;2.40;;;;;;;9.28;82.96;100275.05;110901;1212;138725;-66
2023/11/08 01:44:39;;;;;;;5.40;3.20;;;;;;;9.28;83.07;100276.46;111045;1212;96794;-66
2023/11/08 01:47:07;;;;;;;4.60;2.30;;;;;;;9.28;83.16;100276.79;110855;1212;138385;-66
2023/11/08 01:49:33;;;;;;;5.90;2.40;;;;;;;9.27;82.99;100279.52;111021;1212;96430;-67
2023/11/08 01:52:00;;;;;;;6.90;2.60;;;;;;;9.26;83.12;100281.72;110922;1212;138688;-66
2023/11/08 01:54:27;;;;;;;6.00;2.70;;;;;;;9.27;83.12;100277.92;110717;1209;97826;-66
2023/11/08 01:56:55;;;;;;;4.90;3.00;;;;;;;9.28;83.12;100277.54;110962;1212;96298;-66
2023/11/08 01:59:24;;;;;;;4.20;2.20;;;;;;;9.29;83.33;100279.98;110876;1212;138591;-67
2023/11/08 02:01:49;;;;;;;6.20;2.70;;;;;;;9.28;83.09;100278.77;110846;1212;96392;-66
2023/11/08 02:04:17;;;;;;;3.80;2.10;;;;;;;9.25;83.11;100275.19;110898;1212;138404;-67
2023/11/08 02:06:43;;;;;;;6.00;2.70;;;;;;;9.23;83.00;100275.61;111035;1211;96265;-67
2023/11/08 02:09:08;;;;;;;7.30;2.60;;;;;;;9.16;83.00;100279.29;111006;1210;96298;-66
2023/11/08 02:11:34;;;;;;;4.20;2.20;;;;;;;9.12;83.21;100278.77;111000;1209;138276;-67
2023/11/08 02:14:01;;;;;;;9.90;2.60;;;;;;;9.14;83.21;100285.98;111013;1222;96297;-66
2023/11/08 02:16:30;;;;;;;4.80;2.50;;;;;;;9.07;83.14;100280.55;110883;1209;139138;-66
2023/11/08 02:18:56;;;;;;;5.30;2.10;;;;;;;9.08;83.20;100285.33;110858;1212;96269;-66
2023/11/08 02:21:23;;;;;;;4.50;2.10;;;;;;;9.07;83.20;100288.07;110982;1210;96250;-66
2023/11/08 02:23:49;;;;;;;4.20;2.30;;;;;;;9.05;83.16;100283.84;110955;1209;138581;-66
2023/11/08 02:26:14;;;;;;;5.30;2.50;;;;;;;9.05;83.29;100286.55;111061;1222;95137;-67
2023/11/08 02:28:39;;;;;;;3.60;2.20;;;;;;;9.06;83.31;100283.47;110825;1209;138254;-66
2023/11/08 02:31:05;;;;;;;6.70;2.30;;;;;;;9.07;83.30;100286.63;110964;1209;96266;-66
2023/11/08 02:33:30;;;;;;;4.30;2.40;;;;;;;9.05;83.27;100282.09;110920;1212;96267;-66
2023/11/08 02:35:59;;;;;;;8.40;3.00;;;;;;;9.05;83.38;100289.02;110874;1209;138530;-66
2023/11/08 02:38:24;;;;;;;6.80;2.60;;;;;;;9.08;83.35;100291.08;111021;1209;95801;-66
2023/11/08 02:40:50;;;;;;;5.90;3.00;;;;;;;9.04;83.26;100288.36;111013;1206;138381;-68
2023/11/08 02:43:16;;;;;;;8.50;2.80;;;;;;;8.99;83.35;100289.49;110951;1212;110110;-65
2023/11/08 02:45:41;;;;;;;8.00;2.70;;;;;;;8.94;83.29;100286.86;111041;1206;97509;-66
2023/11/08 02:48:07;;;;;;;3.00;1.90;;;;;;;8.91;83.38;100288.95;111025;1212;138504;-66
2023/11/08 02:50:38;;;;;;;9.50;2.70;;;;;;;8.91;83.52;100284.65;110856;1212;96381;-65
2023/11/08 02:53:04;;;;;;;3.70;2.40;;;;;;;8.94;83.43;100286.48;111045;1211;138818;-66
2023/11/08 02:55:31;;;;;;;4.20;2.60;;;;;;;8.91;83.38;100286.60;111045;1212;96246;-65
2023/11/08 02:57:57;;;;;;;3.50;2.20;;;;;;;8.90;83.37;100290.96;110890;1212;139096;-65
2023/11/08 03:00:24;;;;;;;3.00;1.80;;;;;;;8.88;83.54;100293.33;111104;1206;96333;-68
2023/11/08 03:02:51;;;;;;;5.40;2.10;;;;;;;8.86;83.46;100296.45;111131;1206;110342;-68
2023/11/08 03:05:21;;;;;;;4.80;2.40;;;;;;;8.85;83.53;100296.13;110826;1212;138478;-68
2023/11/08 03:07:48;;;;;;;3.90;2.30;;;;;;;8.86;83.58;100294.50;111094;1210;107785;-66
2023/11/08 03:10:17;;;;;;;4.50;2.10;;;;;;;8.87;83.57;100294.98;110919;1212;139424;-66
2023/11/08 03:12:45;;;;;;;5.50;2.20;;;;;;;8.83;83.47;100291.43;110931;1212;96388;-65
2023/11/08 03:15:11;;;;;;;2.50;1.90;;;;;;;8.83;83.66;100291.05;111177;1206;96761;-65
2023/11/08 03:17:40;;;;;;;2.60;2.00;;;;;;;8.86;83.77;100294.66;110906;1212;139036;-65
2023/11/08 03:20:08;;;;;;;4.70;2.00;;;;;;;8.89;83.77;100295.99;111003;1212;108011;-66
2023/11/08 03:22:35;;;;;;;7.40;1.80;;;;;;;8.90;83.75;100293.77;110894;1212;138881;-66
2023/11/08 03:25:02;;;;;;;3.60;2.10;;;;;;;8.91;83.64;100297.32;111194;1209;96243;-66
2023/11/08 03:27:27;;;;;;;3.10;1.80;;;;;;;8.89;83.65;100289.76;111268;1211;96084;-65
2023/11/08 03:29:54;;;;;;;3.20;1.70;;;;;;;8.87;83.64;100297.65;111037;1209;138629;-68
2023/11/08 03:32:22;;;;;;;4.10;1.90;;;;;;;8.87;83.65;100297.10;111056;1206;96272;-66
2023/11/08 03:34:47;;;;;;;2.30;1.50;;;;;;;8.87;83.69;100296.08;110917;1212;138589;-66
2023/11/08 03:37:13;;;;;;;4.80;2.00;;;;;;;8.86;83.72;100301.98;111000;1220;96325;-66
2023/11/08 03:39:38;;;;;;;6.70;2.50;;;;;;;8.84;83.66;100302.60;111098;1212;96314;-66
2023/11/08 03:42:05;;;;;;;5.30;2.30;;;;;;;8.82;83.69;100302.34;110884;1206;138733;-66
2023/11/08 03:44:30;;;;;;;3.80;1.90;;;;;;;8.82;83.76;100301.80;111034;1212;96348;-66
2023/11/08 03:46:56;;;;;;;2.90;1.70;;;;;;;8.82;83.68;100302.50;111054;1212;138639;-66
2023/11/08 03:49:21;;;;;;;4.40;1.50;;;;;;;8.81;83.67;100302.55;111012;1212;96227;-66
2023/11/08 03:51:46;;;;;;;3.40;1.70;;;;;;;8.78;83.76;100299.79;111035;1206;96337;-66
2023/11/08 03:54:12;;;;;;;2.30;1.60;;;;;;;8.77;83.69;100306.63;110980;1209;140092;-68
2023/11/08 03:56:38;;;;;;;2.70;1.80;;;;;;;8.77;83.76;100308.39;110931;1212;96360;-68
2023/11/08 03:59:04;;;;;;;2.00;1.70;;;;;;;8.75;83.78;100310.06;110985;1212;138579;-68
2023/11/08 04:01:30;;;;;;;3.40;1.30;;;;;;;8.75;83.81;100319.73;111093;1209;96444;-68
2023/11/08 04:03:55;;;;;;;3.70;1.70;;;;;;;8.73;83.79;100319.42;110968;1212;138300;-68
2023/11/08 04:06:21;;;;;;;2.20;1.50;;;;;;;8.69;83.71;100316.55;111272;1212;96253;-69
2023/11/08 04:08:46;;;;;;;4.20;1.70;;;;;;;8.69;83.88;100313.73;111020;1212;97787;-66
2023/11/08 04:11:11;;;;;;;3.70;1.30;;;;;;;8.71;84.01;100315.60;111075;1209;138894;-65
2023/11/08 04:13:37;;;;;;;4.20;1.20;;;;;;;8.72;83.98;100312.67;110987;1206;96262;-66
2023/11/08 04:16:03;;;;;;;2.30;1.10;;;;;;;8.72;83.84;100316.27;110937;1219;139618;-66
2023/11/08 04:18:28;;;;;;;1.70;1.30;;;;;;;8.68;83.84;100311.25;111114;1206;97182;-65
2023/11/08 04:20:53;;;;;;;6.10;1.40;;;;;;;8.67;83.85;100308.81;111081;1212;96100;-66
2023/11/08 04:23:19;;;;;;;2.20;1.20;;;;;;;8.65;84.01;100308.36;111008;1209;138162;-66
2023/11/08 04:25:44;;;;;;;3.90;1.60;;;;;;;8.65;83.81;100316.92;111095;1213;96254;-66
2023/11/08 04:28:10;;;;;;;3.90;1.50;;;;;;;8.63;83.97;100316.80;110947;1212;138129;-65
2023/11/08 04:30:35;;;;;;;3.60;1.80;;;;;;;8.65;84.04;100324.23;111170;1212;96343;-65
2023/11/08 04:33:00;;;;;;;2.20;1.70;;;;;;;8.64;84.03;100329.39;111082;1219;96258;-65
2023/11/08 04:35:26;;;;;;;5.00;1.50;;;;;;;8.65;84.01;100330.27;110769;1212;140000;-65
2023/11/08 04:37:51;;;;;;;3.50;1.60;;;;;;;8.64;84.19;100330.30;111029;1209;96330;-65
2023/11/08 04:40:18;;;;;;;2.80;1.50;;;;;;;8.63;83.98;100332.14;110960;1212;138610;-66
2023/11/08 04:42:43;;;;;;;2.20;1.30;;;;;;;8.61;84.03;100325.10;111037;1209;96272;-65
2023/11/08 04:45:09;;;;;;;19.90;2.30;;;;;;;8.60;84.05;100326.52;111039;1210;96291;-65
2023/11/08 04:47:37;;;;;;;4.40;1.30;;;;;;;8.58;84.08;100326.30;110919;1212;138902;-65
2023/11/08 04:50:03;;;;;;;2.80;1.60;;;;;;;8.58;84.14;100327.52;111076;1212;96314;-66
2023/11/08 04:52:28;;;;;;;3.70;1.40;;;;;;;8.59;84.18;100326.40;110890;1212;138405;-68
2023/11/08 04:54:54;;;;;;;3.80;1.30;;;;;;;8.58;84.17;100329.66;110916;1212;95134;-66
2023/11/08 04:57:19;;;;;;;2.40;1.30;;;;;;;8.58;84.21;100324.86;111002;1209;96305;-68
2023/11/08 04:59:46;;;;;;;6.00;1.70;;;;;;;8.60;84.32;100330.66;110885;1209;138088;-66
2023/11/08 05:02:11;;;;;;;3.50;1.30;;;;;;;8.59;84.18;100333.00;111130;1222;96240;-66
2023/11/08 05:04:40;;;;;;;3.50;1.70;;;;;;;8.56;84.27;100331.54;110925;1210;138920;-66
2023/11/08 05:07:08;;;;;;;3.80;1.50;;;;;;;8.53;84.24;100332.02;111068;1211;96250;-66
2023/11/08 05:09:36;;;;;;;2.70;1.40;;;;;;;8.51;84.30;100329.23;111013;1209;97985;-67
2023/11/08 05:12:05;;;;;;;1.30;1.00;;;;;;;8.55;84.44;100327.83;110932;1212;138182;-66
2023/11/08 05:14:30;;;;;;;3.70;1.40;;;;;;;8.56;84.28;100330.65;111029;1209;96350;-66
2023/11/08 05:16:55;;;;;;;5.00;1.30;;;;;;;8.54;84.33;100328.58;110875;1209;138096;-66
2023/11/08 05:19:21;;;;;;;2.10;1.40;;;;;;;8.53;84.39;100328.98;111043;1211;97529;-66
2023/11/08 05:21:48;;;;;;;2.70;1.70;;;;;;;8.53;84.45;100329.00;111063;1209;96446;-66
2023/11/08 05:24:14;;;;;;;4.10;1.90;;;;;;;8.54;84.53;100330.72;110850;1212;137928;-66
2023/11/08 05:26:39;;;;;;;2.00;1.60;;;;;;;8.52;84.40;100332.77;111037;1208;96321;-65
2023/11/08 05:29:04;;;;;;;4.50;2.10;;;;;;;8.52;84.41;100333.32;111010;1212;140034;-65
2023/11/08 05:31:33;;;;;;;4.30;2.20;;;;;;;8.53;84.59;100334.33;111084;1210;95212;-66
2023/11/08 05:34:03;;;;;;;3.00;2.20;;;;;;;8.52;84.52;100337.22;110942;1212;138268;-66
2023/11/08 05:36:31;;;;;;;9.10;2.60;;;;;;;8.50;84.55;100339.42;111012;1209;110135;-66
2023/11/08 05:38:57;;;;;;;5.10;2.70;;;;;;;8.49;84.64;100336.08;111019;1206;99737;-66
2023/11/08 05:41:23;;;;;;;5.20;2.80;;;;;;;8.52;84.74;100337.05;110950;1206;138002;-66
2023/11/08 05:43:51;;;;;;;4.70;3.00;;;;;;;8.52;84.70;100336.84;111070;1211;96354;-66
2023/11/08 05:46:17;;;;;;;8.70;3.40;;;;;;;8.51;84.56;100341.52;111079;1211;138734;-66
2023/11/08 05:48:42;;;;;;;7.10;2.90;;;;;;;8.47;84.69;100341.33;111036;1206;96807;-66
2023/11/08 05:51:08;;;;;;;3.20;2.30;;;;;;;8.49;84.91;100342.32;111136;1212;97069;-66
2023/11/08 05:53:34;;;;;;;4.80;2.30;;;;;;;8.51;84.79;100347.93;110846;1211;138750;-66
2023/11/08 05:55:59;;;;;;;5.10;2.60;;;;;;;8.51;84.82;100351.13;111055;1206;96199;-66
2023/11/08 05:58:25;;;;;;;5.50;2.70;;;;;;;8.53;84.82;100350.36;111091;1212;138853;-65
2023/11/08 06:00:51;;;;;;;3.20;2.10;;;;;;;8.53;84.87;100355.86;110975;1214;96398;-69
2023/11/08 06:03:16;;;;;;;5.40;2.10;;;;;;;8.50;84.72;100360.08;111119;1212;96318;-69
2023/11/08 06:05:42;;;;;;;4.40;2.10;;;;;;;8.49;84.86;100363.67;111039;1206;138470;-68
2023/11/08 06:08:08;;;;;;;4.20;2.70;;;;;;;8.46;84.78;100368.98;111090;1212;96259;-68
2023/11/08 06:10:33;;;;;;;3.70;2.20;;;;;;;8.43;84.77;100371.04;110916;1211;138491;-66
2023/11/08 06:12:59;;;;;;;5.00;2.20;;;;;;;8.40;84.86;100370.60;111119;1212;96234;-65
2023/11/08 06:15:24;;;;;;;4.40;2.40;;;;;;;8.39;84.91;100371.38;111051;1212;96402;-67
2023/11/08 06:17:52;;;;;;;10.00;2.40;;;;;;;8.40;84.97;100369.02;110923;1209;138108;-66
2023/11/08 06:20:21;;;;;;;3.50;1.90;;;;;;;8.40;84.96;100370.61;111116;1206;96462;-66
2023/11/08 06:22:48;;;;;;;8.30;2.20;;;;;;;8.39;84.93;100370.11;110892;1211;140703;-66
2023/11/08 06:25:13;;;;;;;6.70;2.40;;;;;;;8.40;85.06;100366.52;111074;1206;96266;-66
2023/11/08 06:27:39;;;;;;;10.60;2.60;;;;;;;8.40;85.02;100368.29;110989;1210;96177;-66
2023/11/08 06:30:07;;;;;;;4.00;2.10;;;;;;;8.38;84.96;100368.02;110915;1206;138357;-65
2023/11/08 06:32:32;;;;;;;2.80;2.00;;;;;;;8.38;85.17;100374.09;111131;1212;110158;-65
2023/11/08 06:35:00;;;;;;;3.70;2.30;;;;;;;8.38;85.17;100376.05;110881;1209;138953;-66
2023/11/08 06:37:29;;;;;;;6.00;2.60;;;;;;;8.41;85.28;100375.91;111060;1206;96830;-65
2023/11/08 06:39:55;;;;;;;4.80;2.50;;;;;;;8.43;85.18;100377.09;110911;1212;138703;-66
2023/11/08 06:42:23;;;;;;;8.10;3.00;;;;;;;8.41;85.23;100376.48;111028;1206;96336;-65
2023/11/08 06:44:49;;;;;;;6.90;2.90;;;;;;;8.41;85.29;100379.52;111064;1209;96751;-65
2023/11/08 06:47:15;;;;;;;6.80;3.10;;;;;;;8.38;85.23;100382.47;111053;1211;138847;-65
2023/11/08 06:49:41;;;;;;;10.10;4.00;;;;;;;8.36;85.32;100381.61;111002;1213;95122;-67
2023/11/08 06:52:06;;;;;;;8.70;3.20;;;;;;;8.39;85.53;100382.96;110936;1209;139009;-65
2023/11/08 06:54:33;;;;;;;7.50;3.30;;;;;;;8.40;85.46;100384.14;111071;1206;96259;-65
2023/11/08 06:57:01;;;;;;;6.60;2.80;;;;;;;8.43;85.53;100387.95;111091;1209;107525;-65
2023/11/08 06:59:28;;;;;;;4.80;2.90;;;;;;;8.44;85.60;100386.12;110991;1211;138611;-68
2023/11/08 07:01:53;;;;;;;4.90;3.30;;;;;;;8.45;85.56;100388.40;110987;1206;96357;-67
2023/11/08 07:04:19;;;;;;;6.70;2.60;;;;;;;8.46;85.60;100385.37;111038;1206;138166;-67
2023/11/08 07:06:47;;;;;;;4.10;3.00;;;;;;;8.48;85.73;100389.20;110946;1209;96432;-67
2023/11/08 07:09:14;;;;;;;7.80;3.10;;;;;;;8.52;85.73;100389.23;110889;1206;96345;-67
2023/11/08 07:11:39;;;;;;;5.90;3.10;;;;;;;8.55;85.76;100387.31;110994;1206;138133;-66
2023/11/08 07:14:05;;;;;;;3.60;2.30;;;;;;;8.52;85.66;100389.41;111100;1209;96195;-67
2023/11/08 07:16:30;;;;;;;37.00;5.00;;;;;;;8.55;85.79;100387.68;110787;1209;138262;-66
2023/11/08 07:18:56;;;;;;;8.80;3.60;;;;;;;8.58;85.92;100389.50;110941;1206;96689;-67
2023/11/08 07:21:21;;;;;;;6.60;2.50;;;;;;;8.60;85.89;100392.27;111064;1211;96337;-67
2023/11/08 07:23:48;;;;;;;5.10;2.40;;;;;;;8.61;85.78;100393.29;110937;1209;138126;-66
2023/11/08 07:26:15;;;;;;;7.10;2.70;;;;;;;8.62;85.91;100397.17;113330;1206;96033;-70
2023/11/08 07:28:44;;;;;;;3.20;2.00;;;;;;;8.64;85.89;100395.31;113138;1205;138670;-71
2023/11/08 07:31:12;;;;;;;4.20;2.10;;;;;;;8.65;85.99;100398.11;113176;1206;94450;-71
2023/11/08 07:33:37;;;;;;;5.50;2.60;;;;;;;8.66;85.87;100404.33;110807;1206;96342;-70
2023/11/08 07:36:04;;;;;;;8.70;2.50;;;;;;;8.63;85.83;100405.14;110917;1207;138499;-70
2023/11/08 07:38:30;;;;;;;6.60;2.30;;;;;;;8.64;85.93;100404.05;112551;1206;96682;-72
2023/11/08 07:40:57;;;;;;;3.70;2.20;;;;;;;8.65;85.95;100403.67;111127;1209;139148;-71
2023/11/08 07:43:23;;;;;;;6.80;2.60;;;;;;;8.67;85.90;100404.48;111120;1225;110172;-70
2023/11/08 07:45:48;;;;;;;3.70;2.80;;;;;;;8.67;85.99;100409.43;111726;1209;97637;-68
2023/11/08 07:48:14;;;;;;;29.70;4.70;;;;;;;8.70;85.96;100409.33;111591;1209;138908;-67
2023/11/08 07:50:40;;;;;;;7.30;2.10;;;;;;;8.71;86.14;100406.44;111467;1206;96327;-67
2023/11/08 07:53:05;;;;;;;7.20;4.30;;;;;;;8.73;86.06;100404.22;111490;1212;138729;-68
2023/11/08 07:55:31;;;;;;;5.20;2.10;;;;;;;8.74;86.02;100402.24;111718;1205;96321;-73
2023/11/08 07:57:57;;;;;;;7.00;2.30;;;;;;;8.72;86.03;100407.48;111589;1209;96212;-73
2023/11/08 08:00:24;;;;;;;7.80;2.50;;;;;;;8.68;85.94;100402.98;111537;1209;138013;-68
2023/11/08 08:02:49;;;;;;;5.00;2.40;;;;;;;8.66;86.06;100403.06;111668;1206;95571;-70
2023/11/08 08:05:15;;;;;;;7.10;2.40;;;;;;;8.69;86.09;100403.52;111501;1206;138438;-65
2023/11/08 08:07:41;;;;;;;7.70;2.40;;;;;;;8.71;86.22;100407.85;111605;1206;96279;-68
2023/11/08 08:10:07;;;;;;;4.30;2.40;;;;;;;8.73;86.11;100410.63;110975;1210;139205;-64
2023/11/08 08:12:33;;;;;;;5.30;2.20;;;;;;;8.75;86.18;100410.75;111028;1210;100034;-63
2023/11/08 08:15:00;;;;;;;4.40;2.60;;;;;;;8.76;86.21;100410.69;111160;1210;104230;-63
2023/11/08 08:17:25;;;;;;;3.30;2.10;;;;;;;8.72;86.02;100409.61;110428;1211;139594;-64
2023/11/08 08:19:53;;;;;;;5.60;2.30;;;;;;;8.70;86.05;100415.58;110790;1211;97521;-63
2023/11/08 08:22:20;;;;;;;2.40;1.90;;;;;;;8.68;86.04;100411.38;110954;1221;139519;-63
2023/11/08 08:24:47;;;;;;;4.40;2.60;;;;;;;8.67;86.12;100416.02;111087;1206;96256;-63
2023/11/08 08:27:12;;;;;;;3.60;1.70;;;;;;;8.70;86.23;100418.42;111164;1209;96327;-63
2023/11/08 08:29:38;;;;;;;6.40;2.90;;;;;;;8.73;86.36;100420.41;111006;1211;138561;-63
2023/11/08 08:32:04;;;;;;;3.50;2.00;;;;;;;8.77;86.29;100420.44;111124;1206;100005;-64
2023/11/08 08:34:30;;;;;;;3.90;1.90;;;;;;;8.83;86.31;100414.88;111207;1206;138941;-64
2023/11/08 08:36:56;;;;;;;7.90;2.60;;;;;;;8.88;86.32;100413.61;111188;1206;96302;-64
2023/11/08 08:39:27;;;;;;;8.60;2.20;;;;;;;8.93;86.34;100412.33;111105;1206;110357;-64
2023/11/08 08:41:52;;;;;;;6.20;2.30;;;;;;;8.99;86.35;100412.26;110864;1206;138571;-64
2023/11/08 08:44:18;;;;;;;9.00;2.60;;;;;;;9.04;86.31;100414.40;110599;1212;108435;-63
2023/11/08 08:46:43;;;;;;;5.80;2.40;;;;;;;9.04;86.27;100414.36;110970;1211;140428;-68
2023/11/08 08:49:09;;;;;;;11.70;3.10;;;;;;;9.05;86.33;100420.92;111080;1212;96746;-65
2023/11/08 08:51:34;;;;;;;6.50;2.50;;;;;;;9.08;86.29;100417.08;111132;1211;96333;-66
2023/11/08 08:53:59;;;;;;;8.20;2.60;;;;;;;9.13;86.42;100413.50;110951;1212;138524;-64
2023/11/08 08:56:25;;;;;;;5.10;2.40;;;;;;;9.20;86.44;100416.05;111001;1212;96272;-64
2023/11/08 08:58:51;;;;;;;8.00;2.20;;;;;;;9.25;86.44;100413.69;110979;1208;138723;-64
2023/11/08 09:01:18;;;;;;;5.50;2.40;;;;;;;9.29;86.37;100416.38;111120;1209;97761;-64
2023/11/08 09:03:45;;;;;;;5.10;1.90;;;;;;;9.34;86.42;100415.47;111032;1209;96294;-63
2023/11/08 09:06:11;;;;;;;9.20;3.20;;;;;;;9.37;86.29;100414.09;111009;1211;138548;-62
2023/11/08 09:08:36;;;;;;;7.00;3.00;;;;;;;9.40;86.33;100414.84;111694;1208;96300;-63
2023/11/08 09:11:03;;;;;;;5.70;2.20;;;;;;;9.43;86.26;100412.77;111918;1208;138828;-63
2023/11/08 09:13:28;;;;;;;5.70;2.30;;;;;;;9.47;86.25;100419.55;113122;1209;94550;-63
2023/11/08 09:15:54;;;;;;;5.90;2.50;;;;;;;9.48;86.29;100417.20;113159;1209;94379;-64
2023/11/08 09:18:20;;;;;;;5.60;2.20;;;;;;;9.51;86.27;100425.62;113187;1209;139329;-64
2023/11/08 09:20:45;;;;;;;3.80;1.80;;;;;;;9.53;86.12;100421.59;113189;1208;98847;-64
2023/11/08 09:23:11;;;;;;;3.70;2.00;;;;;;;9.55;86.22;100422.23;111100;1206;138417;-64
2023/11/08 09:25:36;;;;;;;4.80;2.10;;;;;;;9.61;86.21;100422.69;111169;1211;109653;-63
2023/11/08 09:28:02;;;;;;;8.00;1.90;;;;;;;9.63;86.05;100423.11;110661;1209;139230;-63
2023/11/08 09:30:27;;;;;;;7.20;1.40;;;;;;;9.67;86.13;100421.55;110887;1209;97643;-63
2023/11/08 09:32:53;;;;;;;4.20;2.20;;;;;;;9.69;86.08;100420.02;110928;1207;104449;-64
2023/11/08 09:35:21;;;;;;;2.80;1.50;;;;;;;9.71;85.95;100421.89;110866;1210;138416;-66
2023/11/08 09:37:47;;;;;;;6.30;2.00;;;;;;;9.71;85.95;100416.89;111315;1222;97898;-63
2023/11/08 09:40:14;;;;;;;4.30;2.00;;;;;;;9.74;85.93;100422.65;110831;1212;139526;-63
2023/11/08 09:42:40;;;;;;;6.10;1.90;;;;;;;9.72;85.77;100420.05;110794;1213;97641;-63
2023/11/08 09:45:11;;;;;;;7.90;1.60;;;;;;;9.72;85.75;100424.89;110831;1212;97620;-64
2023/11/08 09:47:37;;;;;;;;;;;;;;;9.71;85.69;100420.44;110810;1210;138256;-64
2023/11/08 09:50:08;;;;;;;3.00;1.50;;;;;;;9.74;85.68;100420.50;110838;1211;99429;-64
2023/11/08 09:52:34;;;;;;;7.10;1.50;;;;;;;9.79;85.63;100419.77;110873;1207;139455;-63
2023/11/08 09:54:59;;;;;;;4.20;2.10;;;;;;;9.78;85.52;100427.64;110880;1212;97631;-64
2023/11/08 09:57:26;;;;;;;2.60;1.50;;;;;;;9.75;85.49;100419.55;110891;1208;98311;-64
2023/11/08 09:59:52;;;;;;;3.60;2.00;;;;;;;9.77;85.45;100417.70;110736;1212;139555;-64
2023/11/08 10:02:18;;;;;;;4.90;2.30;;;;;;;9.77;85.32;100421.45;110851;1212;98957;-64
2023/11/08 10:04:45;;;;;;;13.00;2.70;;;;;;;9.77;85.22;100412.36;110771;1212;138315;-63
2023/11/08 10:07:10;;;;;;;28.90;2.80;;;;;;;9.78;85.26;100413.73;110861;1211;97603;-65
2023/11/08 10:09:38;;;;;;;6.60;1.70;;;;;;;9.83;85.28;100410.83;110828;1212;97666;-65
2023/11/08 10:12:06;;;;;;;3.10;1.50;;;;;;;9.86;85.19;100409.63;110746;1212;138101;-64
2023/11/08 10:14:35;;;;;;;5.00;2.10;;;;;;;9.88;85.09;100407.06;110949;1214;97645;-64
2023/11/08 10:17:04;;;;;;;7.30;1.80;;;;;;;9.89;84.99;100405.59;110924;1212;138826;-64
2023/11/08 10:19:40;;;;;;;4.70;1.70;;;;;;;9.86;84.85;100403.20;110998;1212;99770;-66
2023/11/08 10:22:07;;;;;;;3.50;1.60;;;;;;;9.87;84.88;100406.02;110813;1212;138394;-66
2023/11/08 10:24:33;;;;;;;5.90;2.20;;;;;;;9.86;84.71;100409.48;110987;1209;97822;-65
2023/11/08 10:27:12;;;;;;;29.40;3.60;;;;;;;9.85;84.81;100402.02;110918;1212;96591;-66
2023/11/08 10:29:37;;;;;;;5.40;1.40;;;;;;;9.86;84.61;100399.84;110990;1209;138317;-67
2023/11/08 10:32:20;;;;;;;21.00;2.60;;;;;;;9.90;84.82;100403.20;110956;1212;97894;-67
2023/11/08 10:34:46;;;;;;;10.20;1.60;;;;;;;9.91;84.51;100404.05;110949;1212;138445;-67
2023/11/08 10:37:25;;;;;;;6.90;2.00;;;;;;;9.91;84.49;100402.83;110813;1212;99003;-67
2023/11/08 10:39:55;;;;;;;3.50;1.30;;;;;;;9.92;84.44;100398.65;110915;1209;97618;-66
2023/11/08 10:42:21;;;;;;;7.30;1.90;;;;;;;9.96;84.51;100397.61;110820;1209;139146;-66
2023/11/08 10:44:47;;;;;;;8.50;2.50;;;;;;;9.99;84.43;100402.63;111017;1208;105408;-66
2023/11/08 10:47:13;;;;;;;5.80;3.10;;;;;;;9.98;84.25;100404.27;110930;1211;138686;-66
2023/11/08 10:49:40;;;;;;;5.50;2.50;;;;;;;9.95;84.21;100395.15;111242;1212;99723;-66
2023/11/08 10:52:10;;;;;;;6.20;2.40;;;;;;;9.97;84.22;100392.55;110979;1211;139179;-66
2023/11/08 10:54:39;;;;;;;10.80;1.80;;;;;;;10.00;84.19;100397.06;111260;1211;98422;-65
2023/11/08 10:57:08;;;;;;;5.30;2.00;;;;;;;9.99;83.99;100400.50;110953;1209;107997;-65
2023/11/08 10:59:36;;;;;;;5.10;1.60;;;;;;;9.98;83.91;100399.11;110778;1209;138401;-65
2023/11/08 11:02:23;;;;;;;4.40;1.50;;;;;;;9.95;83.81;100402.83;110944;1214;97612;-68
2023/11/08 11:04:56;;;;;;;6.90;1.40;;;;;;;9.93;83.76;100398.98;113085;1209;139235;-66
2023/11/08 11:07:30;;;;;;;5.30;1.80;;;;;;;9.91;83.80;100396.75;113099;1208;99486;-67
2023/11/08 11:09:56;;;;;;;2.70;1.60;;;;;;;9.92;83.76;100402.58;113259;1207;107512;-66
2023/11/08 11:12:56;;;;;;;4.40;1.10;;;;;;;9.93;83.64;100401.48;112002;1209;138277;-66
2023/11/08 11:15:29;;;;;;;6.20;1.50;;;;;;;9.93;83.63;100409.13;110943;1209;97662;-65
2023/11/08 11:17:57;;;;;;;11.70;2.10;;;;;;;9.93;83.56;100398.96;110718;1212;138448;-66